sensor_id;sensor_type;location;lat;lon;timestamp;pressure;altitude;pressure_sealevel;temperature
22269;BMP280;11303;50.772;19.670;2023-12-14T00:01:43;97555.22;;;2.25
22269;BMP280;11303;50.772;19.670;2023-12-14T00:03:47;97557.16;;;2.28
22269;BMP280;11303;50.772;19.670;2023-12-14T00:05:50;97566.22;;;2.26
22269;BMP280;11303;50.772;19.670;2023-12-14T00:07:53;97566.97;;;2.26
22269;BMP280;11303;50.772;19.670;2023-12-14T00:09:54;97567.28;;;2.25
22269;BMP280;11303;50.772;19.670;2023-12-14T00:11:56;97568.03;;;2.25
22269;BMP280;11303;50.772;19.670;2023-12-14T00:13:58;97565.34;;;2.22
22269;BMP280;11303;50.772;19.670;2023-12-14T00:16:02;97559.75;;;2.20
22269;BMP280;11303;50.772;19.670;2023-12-14T00:18:04;97574.06;;;2.21
22269;BMP280;11303;50.772;19.670;2023-12-14T00:20:11;97576.63;;;2.21
22269;BMP280;11303;50.772;19.670;2023-12-14T00:22:13;97580.72;;;2.22
22269;BMP280;11303;50.772;19.670;2023-12-14T00:24:15;97575.59;;;2.22
22269;BMP280;11303;50.772;19.670;2023-12-14T00:26:20;97580.72;;;2.22
22269;BMP280;11303;50.772;19.670;2023-12-14T00:28:22;97583.72;;;2.24
22269;BMP280;11303;50.772;19.670;2023-12-14T00:30:31;97584.03;;;2.22
22269;BMP280;11303;50.772;19.670;2023-12-14T00:32:36;97588.09;;;2.23
22269;BMP280;11303;50.772;19.670;2023-12-14T00:34:38;97585.84;;;2.22
22269;BMP280;11303;50.772;19.670;2023-12-14T00:36:43;97588.72;;;2.20
22269;BMP280;11303;50.772;19.670;2023-12-14T00:38:45;97592.03;;;2.21
22269;BMP280;11303;50.772;19.670;2023-12-14T00:40:47;97593.84;;;2.20
22269;BMP280;11303;50.772;19.670;2023-12-14T00:42:52;97603.31;;;2.20
22269;BMP280;11303;50.772;19.670;2023-12-14T00:44:53;97600.75;;;2.20
22269;BMP280;11303;50.772;19.670;2023-12-14T00:46:55;97599.28;;;2.19
22269;BMP280;11303;50.772;19.670;2023-12-14T00:48:57;97601.06;;;2.18
22269;BMP280;11303;50.772;19.670;2023-12-14T00:50:59;97608.44;;;2.20
22269;BMP280;11303;50.772;19.670;2023-12-14T00:53:00;97605.88;;;2.20
22269;BMP280;11303;50.772;19.670;2023-12-14T00:55:02;97611.00;;;2.20
22269;BMP280;11303;50.772;19.670;2023-12-14T00:57:04;97615.84;;;2.21
22269;BMP280;11303;50.772;19.670;2023-12-14T00:59:06;97615.09;;;2.21
22269;BMP280;11303;50.772;19.670;2023-12-14T01:01:08;97622.03;;;2.20
22269;BMP280;11303;50.772;19.670;2023-12-14T01:03:10;97609.66;;;2.22
22269;BMP280;11303;50.772;19.670;2023-12-14T01:05:12;97617.06;;;2.24
22269;BMP280;11303;50.772;19.670;2023-12-14T01:07:14;97616.31;;;2.23
22269;BMP280;11303;50.772;19.670;2023-12-14T01:09:16;97614.34;;;2.20
22269;BMP280;11303;50.772;19.670;2023-12-14T01:11:18;97615.53;;;2.23
22269;BMP280;11303;50.772;19.670;2023-12-14T01:13:23;97620.22;;;2.21
22269;BMP280;11303;50.772;19.670;2023-12-14T01:15:24;97626.41;;;2.20
22269;BMP280;11303;50.772;19.670;2023-12-14T01:17:26;97627.16;;;2.20
22269;BMP280;11303;50.772;19.670;2023-12-14T01:19:30;97626.88;;;2.22
22269;BMP280;11303;50.772;19.670;2023-12-14T01:21:32;97628.97;;;2.20
22269;BMP280;11303;50.772;19.670;2023-12-14T01:23:34;97620.53;;;2.19
22269;BMP280;11303;50.772;19.670;2023-12-14T01:25:37;97623.09;;;2.19
22269;BMP280;11303;50.772;19.670;2023-12-14T01:27:39;97621.75;;;2.22
22269;BMP280;11303;50.772;19.670;2023-12-14T01:29:41;97620.22;;;2.21
22269;BMP280;11303;50.772;19.670;2023-12-14T01:31:43;97624.75;;;2.24
22269;BMP280;11303;50.772;19.670;2023-12-14T01:33:45;97633.47;;;2.23
22269;BMP280;11303;50.772;19.670;2023-12-14T01:35:49;97629.44;;;2.22
22269;BMP280;11303;50.772;19.670;2023-12-14T01:37:51;97637.44;;;2.20
22269;BMP280;11303;50.772;19.670;2023-12-14T01:39:53;97638.47;;;2.19
22269;BMP280;11303;50.772;19.670;2023-12-14T01:41:55;97634.84;;;2.20
22269;BMP280;11303;50.772;19.670;2023-12-14T01:43:56;97631.53;;;2.20
22269;BMP280;11303;50.772;19.670;2023-12-14T01:45:58;97634.56;;;2.22
22269;BMP280;11303;50.772;19.670;2023-12-14T01:48:03;97629.72;;;2.20
22269;BMP280;11303;50.772;19.670;2023-12-14T01:50:06;97637.44;;;2.20
22269;BMP280;11303;50.772;19.670;2023-12-14T01:52:07;97631.09;;;2.17
22269;BMP280;11303;50.772;19.670;2023-12-14T01:54:09;97616.75;;;2.16
22269;BMP280;11303;50.772;19.670;2023-12-14T01:56:11;97625.22;;;2.17
22269;BMP280;11303;50.772;19.670;2023-12-14T01:58:13;97627.00;;;2.16
22269;BMP280;11303;50.772;19.670;2023-12-14T02:00:38;97628.22;;;2.19
22269;BMP280;11303;50.772;19.670;2023-12-14T02:02:44;97630.03;;;2.19
22269;BMP280;11303;50.772;19.670;2023-12-14T02:04:46;97636.22;;;2.17
22269;BMP280;11303;50.772;19.670;2023-12-14T02:06:49;97632.91;;;2.17
22269;BMP280;11303;50.772;19.670;2023-12-14T02:08:50;97625.22;;;2.17
22269;BMP280;11303;50.772;19.670;2023-12-14T02:10:52;97633.94;;;2.16
22269;BMP280;11303;50.772;19.670;2023-12-14T02:12:54;97636.94;;;2.18
22269;BMP280;11303;50.772;19.670;2023-12-14T02:14:59;97633.03;;;2.21
22269;BMP280;11303;50.772;19.670;2023-12-14T02:17:01;97626.09;;;2.21
22269;BMP280;11303;50.772;19.670;2023-12-14T02:19:03;97639.69;;;2.22
22269;BMP280;11303;50.772;19.670;2023-12-14T02:21:05;97639.69;;;2.22
22269;BMP280;11303;50.772;19.670;2023-12-14T02:23:07;97636.03;;;2.23
22269;BMP280;11303;50.772;19.670;2023-12-14T02:25:09;97636.50;;;2.25
22269;BMP280;11303;50.772;19.670;2023-12-14T02:27:11;97645.69;;;2.26
22269;BMP280;11303;50.772;19.670;2023-12-14T02:29:15;97636.81;;;2.23
22269;BMP280;11303;50.772;19.670;2023-12-14T02:31:19;97638.31;;;2.24
22269;BMP280;11303;50.772;19.670;2023-12-14T02:33:23;97639.06;;;2.25
22269;BMP280;11303;50.772;19.670;2023-12-14T02:35:24;97640.88;;;2.24
22269;BMP280;11303;50.772;19.670;2023-12-14T02:37:26;97633.94;;;2.25
22269;BMP280;11303;50.772;19.670;2023-12-14T02:39:30;97636.50;;;2.25
22269;BMP280;11303;50.772;19.670;2023-12-14T02:41:32;97639.06;;;2.25
22269;BMP280;11303;50.772;19.670;2023-12-14T02:43:34;97642.38;;;2.25
22269;BMP280;11303;50.772;19.670;2023-12-14T02:45:38;97641.63;;;2.25
22269;BMP280;11303;50.772;19.670;2023-12-14T02:47:40;97642.38;;;2.25
22269;BMP280;11303;50.772;19.670;2023-12-14T02:49:44;97646.78;;;2.25
22269;BMP280;11303;50.772;19.670;2023-12-14T02:51:49;97649.63;;;2.23
22269;BMP280;11303;50.772;19.670;2023-12-14T02:53:51;97644.50;;;2.23
22269;BMP280;11303;50.772;19.670;2023-12-14T02:55:53;97646.00;;;2.24
22269;BMP280;11303;50.772;19.670;2023-12-14T02:57:55;97653.25;;;2.22
22269;BMP280;11303;50.772;19.670;2023-12-14T02:59:56;97654.28;;;2.21
22269;BMP280;11303;50.772;19.670;2023-12-14T03:01:58;97656.13;;;2.21
22269;BMP280;11303;50.772;19.670;2023-12-14T03:04:01;97658.22;;;2.19
22269;BMP280;11303;50.772;19.670;2023-12-14T03:06:03;97664.41;;;2.17
22269;BMP280;11303;50.772;19.670;2023-12-14T03:08:05;97660.50;;;2.20
22269;BMP280;11303;50.772;19.670;2023-12-14T03:10:08;97662.75;;;2.22
22269;BMP280;11303;50.772;19.670;2023-12-14T03:12:10;97666.06;;;2.22
22269;BMP280;11303;50.772;19.670;2023-12-14T03:14:12;97678.59;;;2.24
22269;BMP280;11303;50.772;19.670;2023-12-14T03:16:14;97679.81;;;2.26
22269;BMP280;11303;50.772;19.670;2023-12-14T03:18:17;97682.66;;;2.25
22269;BMP280;11303;50.772;19.670;2023-12-14T03:20:20;97684.31;;;2.29
22269;BMP280;11303;50.772;19.670;2023-12-14T03:22:22;97685.06;;;2.30
22269;BMP280;11303;50.772;19.670;2023-12-14T03:24:26;97687.50;;;2.26
22269;BMP280;11303;50.772;19.670;2023-12-14T03:26:28;97689.75;;;2.28
22269;BMP280;11303;50.772;19.670;2023-12-14T03:28:30;97687.50;;;2.26
22269;BMP280;11303;50.772;19.670;2023-12-14T03:30:34;97691.09;;;2.25
22269;BMP280;11303;50.772;19.670;2023-12-14T03:32:36;97712.53;;;2.29
22269;BMP280;11303;50.772;19.670;2023-12-14T03:34:38;97708.16;;;2.30
22269;BMP280;11303;50.772;19.670;2023-12-14T03:36:41;97715.84;;;2.30
22269;BMP280;11303;50.772;19.670;2023-12-14T03:38:42;97710.72;;;2.30
22269;BMP280;11303;50.772;19.670;2023-12-14T03:40:44;97713.56;;;2.28
22269;BMP280;11303;50.772;19.670;2023-12-14T03:42:46;97723.09;;;2.28
22269;BMP280;11303;50.772;19.670;2023-12-14T03:44:48;97723.09;;;2.28
22269;BMP280;11303;50.772;19.670;2023-12-14T03:46:50;97728.97;;;2.28
22269;BMP280;11303;50.772;19.670;2023-12-14T03:48:52;97727.75;;;2.26
22269;BMP280;11303;50.772;19.670;2023-12-14T03:50:54;97729.88;;;2.24
22269;BMP280;11303;50.772;19.670;2023-12-14T03:52:58;97736.50;;;2.25
22269;BMP280;11303;50.772;19.670;2023-12-14T03:55:00;97728.03;;;2.24
22269;BMP280;11303;50.772;19.670;2023-12-14T03:57:02;97729.56;;;2.25
22269;BMP280;11303;50.772;19.670;2023-12-14T03:59:04;97727.75;;;2.26
22269;BMP280;11303;50.772;19.670;2023-12-14T04:01:05;97720.06;;;2.26
22269;BMP280;11303;50.772;19.670;2023-12-14T04:03:07;97736.03;;;2.23
22269;BMP280;11303;50.772;19.670;2023-12-14T04:05:09;97726.09;;;2.21
22269;BMP280;11303;50.772;19.670;2023-12-14T04:07:11;97730.91;;;2.23
22269;BMP280;11303;50.772;19.670;2023-12-14T04:09:13;97736.63;;;2.20
22269;BMP280;11303;50.772;19.670;2023-12-14T04:11:15;97740.28;;;2.19
22269;BMP280;11303;50.772;19.670;2023-12-14T04:13:17;97733.34;;;2.19
22269;BMP280;11303;50.772;19.670;2023-12-14T04:15:19;97745.41;;;2.19
22269;BMP280;11303;50.772;19.670;2023-12-14T04:17:21;97744.63;;;2.18
22269;BMP280;11303;50.772;19.670;2023-12-14T04:19:23;97742.84;;;2.19
22269;BMP280;11303;50.772;19.670;2023-12-14T04:21:25;97746.44;;;2.17
22269;BMP280;11303;50.772;19.670;2023-12-14T04:23:27;97755.03;;;2.13
22269;BMP280;11303;50.772;19.670;2023-12-14T04:25:28;97755.34;;;2.11
22269;BMP280;11303;50.772;19.670;2023-12-14T04:27:30;97752.34;;;2.09
22269;BMP280;11303;50.772;19.670;2023-12-14T04:29:32;97761.06;;;2.08
22269;BMP280;11303;50.772;19.670;2023-12-14T04:31:34;97765.16;;;2.09
22269;BMP280;11303;50.772;19.670;2023-12-14T04:33:36;97763.63;;;2.08
22269;BMP280;11303;50.772;19.670;2023-12-14T04:35:38;97773.28;;;2.11
22269;BMP280;11303;50.772;19.670;2023-12-14T04:37:40;97771.47;;;2.12
22269;BMP280;11303;50.772;19.670;2023-12-14T04:39:42;97773.72;;;2.13
22269;BMP280;11303;50.772;19.670;2023-12-14T04:41:46;97779.94;;;2.12
22269;BMP280;11303;50.772;19.670;2023-12-14T04:43:48;97773.72;;;2.13
22269;BMP280;11303;50.772;19.670;2023-12-14T04:45:50;97779.63;;;2.14
22269;BMP280;11303;50.772;19.670;2023-12-14T04:47:52;97792.16;;;2.15
22269;BMP280;11303;50.772;19.670;2023-12-14T04:49:54;97794.25;;;2.13
22269;BMP280;11303;50.772;19.670;2023-12-14T04:51:56;97788.66;;;2.11
22269;BMP280;11303;50.772;19.670;2023-12-14T04:53:57;97798.47;;;2.09
22269;BMP280;11303;50.772;19.670;2023-12-14T04:55:59;97803.00;;;2.12
22269;BMP280;11303;50.772;19.670;2023-12-14T04:58:01;97806.31;;;2.13
22269;BMP280;11303;50.772;19.670;2023-12-14T05:00:05;97820.94;;;2.12
22269;BMP280;11303;50.772;19.670;2023-12-14T05:02:07;97820.94;;;2.12
22269;BMP280;11303;50.772;19.670;2023-12-14T05:04:09;97819.88;;;2.13
22269;BMP280;11303;50.772;19.670;2023-12-14T05:06:11;97828.66;;;2.12
22269;BMP280;11303;50.772;19.670;2023-12-14T05:08:12;97830.91;;;2.14
22269;BMP280;11303;50.772;19.670;2023-12-14T05:10:14;97831.66;;;2.14
22269;BMP280;11303;50.772;19.670;2023-12-14T05:12:16;97830.91;;;2.14
22269;BMP280;11303;50.772;19.670;2023-12-14T05:14:18;97843.25;;;2.12
22269;BMP280;11303;50.772;19.670;2023-12-14T05:16:20;97841.00;;;2.10
22269;BMP280;11303;50.772;19.670;2023-12-14T05:18:22;97845.66;;;2.08
22269;BMP280;11303;50.772;19.670;2023-12-14T05:20:27;97853.34;;;2.08
22269;BMP280;11303;50.772;19.670;2023-12-14T05:22:29;97850.78;;;2.08
22269;BMP280;11303;50.772;19.670;2023-12-14T05:24:30;97853.34;;;2.08
22269;BMP280;11303;50.772;19.670;2023-12-14T05:26:32;97852.13;;;2.06
22269;BMP280;11303;50.772;19.670;2023-12-14T05:28:34;97852.91;;;2.06
22269;BMP280;11303;50.772;19.670;2023-12-14T05:30:36;97860.91;;;2.05
22269;BMP280;11303;50.772;19.670;2023-12-14T05:32:39;97858.16;;;2.01
22269;BMP280;11303;50.772;19.670;2023-12-14T05:34:41;97860.72;;;2.01
22269;BMP280;11303;50.772;19.670;2023-12-14T05:36:43;97861.50;;;2.02
22269;BMP280;11303;50.772;19.670;2023-12-14T05:38:45;97860.72;;;2.01
22269;BMP280;11303;50.772;19.670;2023-12-14T05:40:47;97865.84;;;2.01
22269;BMP280;11303;50.772;19.670;2023-12-14T05:42:49;97866.63;;;2.02
22269;BMP280;11303;50.772;19.670;2023-12-14T05:44:51;97861.78;;;2.00
22269;BMP280;11303;50.772;19.670;2023-12-14T05:46:52;97869.63;;;2.04
22269;BMP280;11303;50.772;19.670;2023-12-14T05:48:54;97875.78;;;2.03
22269;BMP280;11303;50.772;19.670;2023-12-14T05:50:57;97874.31;;;2.02
22269;BMP280;11303;50.772;19.670;2023-12-14T05:52:59;97869.63;;;2.04
22269;BMP280;11303;50.772;19.670;2023-12-14T05:55:00;97877.31;;;2.04
22269;BMP280;11303;50.772;19.670;2023-12-14T05:57:05;97888.78;;;2.06
22269;BMP280;11303;50.772;19.670;2023-12-14T05:59:07;97880.63;;;2.04
22269;BMP280;11303;50.772;19.670;2023-12-14T06:01:09;97890.28;;;2.07
22269;BMP280;11303;50.772;19.670;2023-12-14T06:03:10;97893.16;;;2.06
22269;BMP280;11303;50.772;19.670;2023-12-14T06:05:12;97889.84;;;2.05
22269;BMP280;11303;50.772;19.670;2023-12-14T06:07:14;97897.97;;;2.07
22269;BMP280;11303;50.772;19.670;2023-12-14T06:09:17;97904.91;;;2.07
22269;BMP280;11303;50.772;19.670;2023-12-14T06:11:23;97901.63;;;2.06
22269;BMP280;11303;50.772;19.670;2023-12-14T06:13:25;97901.63;;;2.06
22269;BMP280;11303;50.772;19.670;2023-12-14T06:15:27;97906.75;;;2.06
22269;BMP280;11303;50.772;19.670;2023-12-14T06:17:29;97906.75;;;2.06
22269;BMP280;11303;50.772;19.670;2023-12-14T06:19:32;97910.34;;;2.05
22269;BMP280;11303;50.772;19.670;2023-12-14T06:21:34;97909.91;;;2.03
22269;BMP280;11303;50.772;19.670;2023-12-14T06:23:35;97905.81;;;2.02
22269;BMP280;11303;50.772;19.670;2023-12-14T06:25:37;97907.91;;;2.00
22269;BMP280;11303;50.772;19.670;2023-12-14T06:27:41;97909.72;;;1.99
22269;BMP280;11303;50.772;19.670;2023-12-14T06:29:43;97918.19;;;2.00
22269;BMP280;11303;50.772;19.670;2023-12-14T06:31:45;97918.94;;;2.01
22269;BMP280;11303;50.772;19.670;2023-12-14T06:33:48;97925.56;;;2.02
22269;BMP280;11303;50.772;19.670;2023-12-14T06:35:50;97935.53;;;2.03
22269;BMP280;11303;50.772;19.670;2023-12-14T06:37:52;97931.91;;;2.04
22269;BMP280;11303;50.772;19.670;2023-12-14T06:39:54;97936.72;;;2.06
22269;BMP280;11303;50.772;19.670;2023-12-14T06:41:55;97946.69;;;2.07
22269;BMP280;11303;50.772;19.670;2023-12-14T06:43:58;97947.47;;;2.08
22269;BMP280;11303;50.772;19.670;2023-12-14T06:46:00;97948.94;;;2.09
22269;BMP280;11303;50.772;19.670;2023-12-14T06:48:02;97954.28;;;2.12
22269;BMP280;11303;50.772;19.670;2023-12-14T06:50:05;97955.00;;;2.13
22269;BMP280;11303;50.772;19.670;2023-12-14T06:52:07;97963.16;;;2.15
22269;BMP280;11303;50.772;19.670;2023-12-14T06:54:09;97963.47;;;2.13
22269;BMP280;11303;50.772;19.670;2023-12-14T06:56:11;97964.22;;;2.14
22269;BMP280;11303;50.772;19.670;2023-12-14T06:58:17;97963.16;;;2.15
22269;BMP280;11303;50.772;19.670;2023-12-14T07:00:19;97964.69;;;2.16
22269;BMP280;11303;50.772;19.670;2023-12-14T07:02:21;97968.47;;;2.19
22269;BMP280;11303;50.772;19.670;2023-12-14T07:04:23;97970.25;;;2.18
22269;BMP280;11303;50.772;19.670;2023-12-14T07:06:24;97968.28;;;2.15
22269;BMP280;11303;50.772;19.670;2023-12-14T07:08:26;97978.25;;;2.16
22269;BMP280;11303;50.772;19.670;2023-12-14T07:10:28;97977.78;;;2.14
22269;BMP280;11303;50.772;19.670;2023-12-14T07:12:29;97978.53;;;2.15
22269;BMP280;11303;50.772;19.670;2023-12-14T07:14:31;97981.88;;;2.15
22269;BMP280;11303;50.772;19.670;2023-12-14T07:16:33;97976.16;;;2.19
22269;BMP280;11303;50.772;19.670;2023-12-14T07:18:41;97987.03;;;2.24
22269;BMP280;11303;50.772;19.670;2023-12-14T07:20:43;97988.25;;;2.27
22269;BMP280;11303;50.772;19.670;2023-12-14T07:22:44;97991.88;;;2.26
22269;BMP280;11303;50.772;19.670;2023-12-14T07:24:46;97991.28;;;2.29
22269;BMP280;11303;50.772;19.670;2023-12-14T07:26:56;97998.66;;;2.30
22269;BMP280;11303;50.772;19.670;2023-12-14T07:28:58;97998.25;;;2.37
22269;BMP280;11303;50.772;19.670;2023-12-14T07:31:00;97999.91;;;2.42
22269;BMP280;11303;50.772;19.670;2023-12-14T07:33:02;98007.03;;;2.45
22269;BMP280;11303;50.772;19.670;2023-12-14T07:35:07;98007.78;;;2.45
22269;BMP280;11303;50.772;19.670;2023-12-14T07:37:10;98009.75;;;2.48
22269;BMP280;11303;50.772;19.670;2023-12-14T07:39:13;98012.50;;;2.61
22269;BMP280;11303;50.772;19.670;2023-12-14T07:41:14;98017.91;;;2.68
22269;BMP280;11303;50.772;19.670;2023-12-14T07:43:17;98020.47;;;2.68
22269;BMP280;11303;50.772;19.670;2023-12-14T07:45:19;98016.28;;;2.72
22269;BMP280;11303;50.772;19.670;2023-12-14T07:47:21;98016.59;;;2.79
22269;BMP280;11303;50.772;19.670;2023-12-14T07:49:23;98025.78;;;2.71
22269;BMP280;11303;50.772;19.670;2023-12-14T07:51:25;98024.16;;;2.67
22269;BMP280;11303;50.772;19.670;2023-12-14T07:53:26;98032.13;;;2.65
22269;BMP280;11303;50.772;19.670;2023-12-14T07:55:28;98030.63;;;2.73
22269;BMP280;11303;50.772;19.670;2023-12-14T07:57:30;98039.06;;;2.73
22269;BMP280;11303;50.772;19.670;2023-12-14T07:59:32;98044.34;;;2.77
22269;BMP280;11303;50.772;19.670;2023-12-14T08:01:34;98046.47;;;2.75
22269;BMP280;11303;50.772;19.670;2023-12-14T08:03:36;98040.13;;;2.72
22269;BMP280;11303;50.772;19.670;2023-12-14T08:05:38;98054.03;;;2.80
22269;BMP280;11303;50.772;19.670;2023-12-14T08:07:40;98048.94;;;2.89
22269;BMP280;11303;50.772;19.670;2023-12-14T08:09:41;98051.06;;;2.96
22269;BMP280;11303;50.772;19.670;2023-12-14T08:11:43;98058.00;;;2.95
22269;BMP280;11303;50.772;19.670;2023-12-14T08:13:45;98073.09;;;2.88
22269;BMP280;11303;50.772;19.670;2023-12-14T08:15:47;98065.69;;;2.86
22269;BMP280;11303;50.772;19.670;2023-12-14T08:17:49;98071.09;;;2.85
22269;BMP280;11303;50.772;19.670;2023-12-14T08:19:50;98075.03;;;2.82
22269;BMP280;11303;50.772;19.670;2023-12-14T08:21:52;98080.47;;;2.89
22269;BMP280;11303;50.772;19.670;2023-12-14T08:23:54;98077.47;;;2.87
22269;BMP280;11303;50.772;19.670;2023-12-14T08:25:57;98082.75;;;2.91
22269;BMP280;11303;50.772;19.670;2023-12-14T08:27:59;98090.75;;;2.98
22269;BMP280;11303;50.772;19.670;2023-12-14T08:30:05;98079.91;;;3.01
22269;BMP280;11303;50.772;19.670;2023-12-14T08:32:06;98082.34;;;2.98
22269;BMP280;11303;50.772;19.670;2023-12-14T08:34:08;98087.47;;;2.98
22269;BMP280;11303;50.772;19.670;2023-12-14T08:36:15;98091.38;;;2.95
22269;BMP280;11303;50.772;19.670;2023-12-14T08:38:17;98090.75;;;2.98
22269;BMP280;11303;50.772;19.670;2023-12-14T08:40:18;98097.25;;;2.96
22269;BMP280;11303;50.772;19.670;2023-12-14T08:42:21;98091.84;;;2.97
22269;BMP280;11303;50.772;19.670;2023-12-14T08:44:22;98108.03;;;2.98
22269;BMP280;11303;50.772;19.670;2023-12-14T08:46:24;98103.31;;;3.00
22269;BMP280;11303;50.772;19.670;2023-12-14T08:48:26;98099.69;;;3.09
22269;BMP280;11303;50.772;19.670;2023-12-14T08:50:28;98100.47;;;3.10
22269;BMP280;11303;50.772;19.670;2023-12-14T08:52:30;98107.69;;;3.08
22269;BMP280;11303;50.772;19.670;2023-12-14T08:54:31;98110.91;;;3.14
22269;BMP280;11303;50.772;19.670;2023-12-14T08:56:33;98109.84;;;3.15
22269;BMP280;11303;50.772;19.670;2023-12-14T08:58:35;98109.72;;;3.28
22269;BMP280;11303;50.772;19.670;2023-12-14T09:00:37;98122.56;;;3.28
22269;BMP280;11303;50.772;19.670;2023-12-14T09:02:41;98124.66;;;3.26
22269;BMP280;11303;50.772;19.670;2023-12-14T09:04:43;98130.84;;;3.34
22269;BMP280;11303;50.772;19.670;2023-12-14T09:06:45;98128.91;;;3.40
22269;BMP280;11303;50.772;19.670;2023-12-14T09:08:47;98126.66;;;3.47
22269;BMP280;11303;50.772;19.670;2023-12-14T09:10:48;98137.41;;;3.49
22269;BMP280;11303;50.772;19.670;2023-12-14T09:12:50;98142.34;;;3.37
22269;BMP280;11303;50.772;19.670;2023-12-14T09:14:52;98144.63;;;3.38
22269;BMP280;11303;50.772;19.670;2023-12-14T09:16:54;98143.09;;;3.37
22269;BMP280;11303;50.772;19.670;2023-12-14T09:18:56;98157.63;;;3.42
22269;BMP280;11303;50.772;19.670;2023-12-14T09:20:57;98157.63;;;3.42
22269;BMP280;11303;50.772;19.670;2023-12-14T09:22:59;98153.56;;;3.41
22269;BMP280;11303;50.772;19.670;2023-12-14T09:25:01;98160.03;;;3.38
22269;BMP280;11303;50.772;19.670;2023-12-14T09:27:03;98151.25;;;3.31
22269;BMP280;11303;50.772;19.670;2023-12-14T09:29:05;98167.59;;;3.26
22269;BMP280;11303;50.772;19.670;2023-12-14T09:31:09;98174.38;;;3.22
22269;BMP280;11303;50.772;19.670;2023-12-14T09:33:11;98176.63;;;3.23
22269;BMP280;11303;50.772;19.670;2023-12-14T09:35:13;98175.16;;;3.22
22269;BMP280;11303;50.772;19.670;2023-12-14T09:37:15;98181.78;;;3.23
22269;BMP280;11303;50.772;19.670;2023-12-14T09:39:17;98181.47;;;3.25
22269;BMP280;11303;50.772;19.670;2023-12-14T09:41:21;98180.09;;;3.19
22269;BMP280;11303;50.772;19.670;2023-12-14T09:43:23;98177.81;;;3.17
22269;BMP280;11303;50.772;19.670;2023-12-14T09:45:28;98174.97;;;3.19
22269;BMP280;11303;50.772;19.670;2023-12-14T09:47:30;98184.03;;;3.25
22269;BMP280;11303;50.772;19.670;2023-12-14T09:49:32;98173.31;;;3.23
22269;BMP280;11303;50.772;19.670;2023-12-14T09:51:34;98185.56;;;3.26
22269;BMP280;11303;50.772;19.670;2023-12-14T09:53:36;98186.63;;;3.25
22269;BMP280;11303;50.772;19.670;2023-12-14T09:55:38;98188.88;;;3.26
22269;BMP280;11303;50.772;19.670;2023-12-14T09:57:40;98191.47;;;3.26
22269;BMP280;11303;50.772;19.670;2023-12-14T09:59:50;98193.13;;;3.22
22269;BMP280;11303;50.772;19.670;2023-12-14T10:01:52;98193.56;;;3.24
22269;BMP280;11303;50.772;19.670;2023-12-14T10:04:10;98198.06;;;3.19
22269;BMP280;11303;50.772;19.670;2023-12-14T10:06:12;98189.63;;;3.18
22269;BMP280;11303;50.772;19.670;2023-12-14T10:08:18;98198.38;;;3.17
22269;BMP280;11303;50.772;19.670;2023-12-14T10:10:20;98180.41;;;3.17
22269;BMP280;11303;50.772;19.670;2023-12-14T10:12:21;98194.91;;;3.22
22269;BMP280;11303;50.772;19.670;2023-12-14T10:14:25;98200.03;;;3.13
22269;BMP280;11303;50.772;19.670;2023-12-14T10:16:31;98206.66;;;3.14
22269;BMP280;11303;50.772;19.670;2023-12-14T10:18:34;98200.50;;;3.15
22269;BMP280;11303;50.772;19.670;2023-12-14T10:20:36;98206.72;;;3.23
22269;BMP280;11303;50.772;19.670;2023-12-14T10:22:39;98199.16;;;3.18
22269;BMP280;11303;50.772;19.670;2023-12-14T10:24:45;98205.78;;;3.19
22269;BMP280;11303;50.772;19.670;2023-12-14T10:26:47;98216.25;;;3.22
22269;BMP280;11303;50.772;19.670;2023-12-14T10:28:52;98209.28;;;3.23
22269;BMP280;11303;50.772;19.670;2023-12-14T10:30:55;98206.56;;;3.19
22269;BMP280;11303;50.772;19.670;2023-12-14T10:32:57;98216.50;;;3.12
22269;BMP280;11303;50.772;19.670;2023-12-14T10:34:59;98211.34;;;3.12
22269;BMP280;11303;50.772;19.670;2023-12-14T10:37:01;98215.16;;;3.15
22269;BMP280;11303;50.772;19.670;2023-12-14T10:39:08;98212.75;;;3.18
22269;BMP280;11303;50.772;19.670;2023-12-14T10:41:13;98208.25;;;3.24
22269;BMP280;11303;50.772;19.670;2023-12-14T10:43:15;98220.50;;;3.27
22269;BMP280;11303;50.772;19.670;2023-12-14T10:45:25;98224.84;;;3.26
22269;BMP280;11303;50.772;19.670;2023-12-14T10:47:29;98225.16;;;3.25
22269;BMP280;11303;50.772;19.670;2023-12-14T10:49:31;98222.56;;;3.25
22269;BMP280;11303;50.772;19.670;2023-12-14T10:51:34;98230.00;;;3.26
22269;BMP280;11303;50.772;19.670;2023-12-14T10:53:38;98229.38;;;3.30
22269;BMP280;11303;50.772;19.670;2023-12-14T10:55:43;98233.47;;;3.31
22269;BMP280;11303;50.772;19.670;2023-12-14T10:57:45;98235.28;;;3.30
22269;BMP280;11303;50.772;19.670;2023-12-14T10:59:49;98244.66;;;3.35
22269;BMP280;11303;50.772;19.670;2023-12-14T11:01:55;98245.72;;;3.34
22269;BMP280;11303;50.772;19.670;2023-12-14T11:03:58;98244.47;;;3.31
22269;BMP280;11303;50.772;19.670;2023-12-14T11:06:01;98253.56;;;3.28
22269;BMP280;11303;50.772;19.670;2023-12-14T11:08:16;98248.41;;;3.20
22269;BMP280;11303;50.772;19.670;2023-12-14T11:10:42;98246.13;;;3.18
22269;BMP280;11303;50.772;19.670;2023-12-14T11:15:01;98259.25;;;3.17
22269;BMP280;11303;50.772;19.670;2023-12-14T11:17:09;98261.09;;;3.16
22269;BMP280;11303;50.772;19.670;2023-12-14T11:19:24;98256.09;;;3.20
22269;BMP280;11303;50.772;19.670;2023-12-14T11:21:26;98257.78;;;3.24
22269;BMP280;11303;50.772;19.670;2023-12-14T11:23:33;98261.59;;;3.36
22269;BMP280;11303;50.772;19.670;2023-12-14T11:25:37;98267.81;;;3.43
22269;BMP280;11303;50.772;19.670;2023-12-14T11:27:47;98262.72;;;3.52
22269;BMP280;11303;50.772;19.670;2023-12-14T11:29:48;98272.72;;;3.62
22269;BMP280;11303;50.772;19.670;2023-12-14T11:31:50;98279.06;;;3.65
22269;BMP280;11303;50.772;19.670;2023-12-14T11:33:53;98279.53;;;3.67
22269;BMP280;11303;50.772;19.670;2023-12-14T11:35:55;98280.41;;;3.62
22269;BMP280;11303;50.772;19.670;2023-12-14T11:37:58;98278.75;;;3.58
22269;BMP280;11303;50.772;19.670;2023-12-14T11:40:02;98281.47;;;3.61
22269;BMP280;11303;50.772;19.670;2023-12-14T11:42:07;98289.63;;;3.55
22269;BMP280;11303;50.772;19.670;2023-12-14T11:44:22;98285.84;;;3.52
22269;BMP280;11303;50.772;19.670;2023-12-14T11:46:24;98287.97;;;3.50
22269;BMP280;11303;50.772;19.670;2023-12-14T11:48:26;98283.28;;;3.52
22269;BMP280;11303;50.772;19.670;2023-12-14T11:50:28;98282.47;;;3.43